createdAt,value
2022-08-07T00:02:37.593Z,99.90
2022-08-07T00:06:52.264Z,99.90
2022-08-07T00:11:19.854Z,99.90
2022-08-07T00:15:53.244Z,99.90
2022-08-07T00:20:29.762Z,99.90
2022-08-07T00:24:56.681Z,99.90
2022-08-07T00:29:20.220Z,99.90
2022-08-07T00:33:47.690Z,99.90
2022-08-07T00:38:10.180Z,99.90
2022-08-07T00:42:37.541Z,99.90
2022-08-07T00:47:03.501Z,99.90
2022-08-07T00:51:57.515Z,99.90
2022-08-07T00:56:15.959Z,99.90
2022-08-07T01:00:38.462Z,99.90
2022-08-07T01:05:19.277Z,99.90
2022-08-07T01:10:06.144Z,99.90
2022-08-07T01:14:28.380Z,99.90
2022-08-07T01:18:52.421Z,99.90
2022-08-07T01:23:18.521Z,99.90
2022-08-07T01:27:57.912Z,99.90
2022-08-07T01:32:22.987Z,99.90
2022-08-07T01:36:52.688Z,99.90
2022-08-07T01:41:26.174Z,99.90
2022-08-07T01:45:55.462Z,99.90
2022-08-07T01:50:29.058Z,99.90
2022-08-07T01:54:55.282Z,99.90
2022-08-07T01:59:45.232Z,99.90
2022-08-07T02:04:30.356Z,99.90
2022-08-07T02:08:58.004Z,99.90
2022-08-07T02:13:27.604Z,99.90
2022-08-07T02:18:13.979Z,99.90
2022-08-07T02:22:43.737Z,99.90
2022-08-07T02:27:07.462Z,99.90
2022-08-07T02:31:32.731Z,99.90
2022-08-07T02:36:29.365Z,99.90
2022-08-07T02:40:39.365Z,99.90
2022-08-07T02:45:59.325Z,99.90
2022-08-07T02:49:57.551Z,99.90
2022-08-07T02:54:29.302Z,99.90
2022-08-07T02:58:54.299Z,99.90
2022-08-07T03:03:21.007Z,99.90
2022-08-07T03:08:07.618Z,99.90
2022-08-07T03:12:34.423Z,99.90
2022-08-07T03:17:05.521Z,99.90
2022-08-07T03:21:33.169Z,99.90
2022-08-07T03:25:59.897Z,99.90
2022-08-07T03:30:26.622Z,99.90
2022-08-07T03:35:01.148Z,99.90
2022-08-07T03:39:59.851Z,99.90
2022-08-07T03:44:31.769Z,99.90
2022-08-07T03:49:02.963Z,99.90
2022-08-07T03:54:32.912Z,99.90
2022-08-07T03:58:35.153Z,99.90
2022-08-07T04:03:03.845Z,99.90
2022-08-07T04:07:42.639Z,99.90
2022-08-07T04:12:23.723Z,99.90
2022-08-07T04:16:58.205Z,99.90
2022-08-07T04:21:22.956Z,99.90
2022-08-07T04:25:49.154Z,99.90
2022-08-07T04:30:36.061Z,99.90
2022-08-07T04:35:06.338Z,99.90
2022-08-07T04:39:35.545Z,99.90
2022-08-07T04:44:13.271Z,99.90
2022-08-07T04:49:24.414Z,96.90
2022-08-07T04:54:34.283Z,91.90
2022-08-07T04:59:18.340Z,90.00
2022-08-07T05:04:17.383Z,83.30
2022-08-07T05:09:08.560Z,75.50
2022-08-07T05:14:53.189Z,70.00
2022-08-07T05:19:00.983Z,67.50
2022-08-07T05:23:41.503Z,63.70
2022-08-07T05:28:20.052Z,60.70
2022-08-07T05:32:47.983Z,58.40
2022-08-07T05:37:11.067Z,57.00
2022-08-07T05:42:01.714Z,56.00
2022-08-07T05:46:29.573Z,54.50
2022-08-07T05:50:54.364Z,52.20
2022-08-07T05:55:17.345Z,50.90
2022-08-07T05:59:56.016Z,49.00
2022-08-07T06:04:29.824Z,46.00
2022-08-07T06:08:55.064Z,44.10
2022-08-07T06:13:18.824Z,42.80
2022-08-07T06:17:53.829Z,39.90
2022-08-07T06:22:23.823Z,37.10
2022-08-07T06:28:00.031Z,36.40
2022-08-07T06:32:07.742Z,36.30
2022-08-07T06:36:35.477Z,36.00
2022-08-07T06:41:03.169Z,35.00
2022-08-07T06:45:30.347Z,33.80
2022-08-07T06:49:58.708Z,32.50
2022-08-07T06:55:31.896Z,31.40
2022-08-07T07:00:17.738Z,32.50
2022-08-07T07:04:33.030Z,32.00
2022-08-07T07:08:55.321Z,31.60
2022-08-07T07:13:55.959Z,30.80
2022-08-07T07:18:46.997Z,31.00
2022-08-07T07:24:06.106Z,30.00
2022-08-07T07:28:42.131Z,29.90
2022-08-07T07:33:00.061Z,29.10
2022-08-07T07:37:49.618Z,28.60
2022-08-07T07:42:17.491Z,28.20
2022-08-07T07:46:56.053Z,28.60
2022-08-07T07:51:27.790Z,28.00
2022-08-07T07:55:57.601Z,27.20
2022-08-07T08:00:29.752Z,27.20
2022-08-07T08:04:57.663Z,27.00
2022-08-07T08:09:29.606Z,27.00
2022-08-07T08:13:53.827Z,28.20
2022-08-07T08:18:19.827Z,28.30
2022-08-07T08:23:03.503Z,28.10
2022-08-07T08:27:37.843Z,28.70
2022-08-07T08:32:17.980Z,28.00
2022-08-07T08:36:46.355Z,27.40
2022-08-07T08:41:57.186Z,28.00
2022-08-07T08:47:22.264Z,27.90
2022-08-07T08:52:14.128Z,31.90
2022-08-07T08:56:48.102Z,34.70
2022-08-07T09:01:43.831Z,35.70
2022-08-07T09:06:47.856Z,38.60
2022-08-07T09:11:43.321Z,39.80
2022-08-07T09:16:30.638Z,37.80
2022-08-07T09:21:33.915Z,31.00
2022-08-07T09:26:51.743Z,32.60
2022-08-07T09:32:01.926Z,30.80
2022-08-07T09:36:35.439Z,31.00
2022-08-07T09:41:58.523Z,30.00
2022-08-07T09:47:51.296Z,27.80
2022-08-07T09:52:33.590Z,27.10
2022-08-07T09:57:21.602Z,27.50
2022-08-07T10:02:29.546Z,26.80
2022-08-07T10:07:24.432Z,26.10
2022-08-07T10:12:26.384Z,25.80
2022-08-07T10:18:00.941Z,26.10
2022-08-07T10:22:37.664Z,27.80
2022-08-07T10:27:45.843Z,30.20
2022-08-07T10:32:51.577Z,29.60
2022-08-07T10:38:00.703Z,28.80
2022-08-07T10:42:59.144Z,29.20
2022-08-07T10:48:03.074Z,27.90
2022-08-07T10:53:21.705Z,28.30
2022-08-07T10:58:05.958Z,28.30
2022-08-07T11:03:04.126Z,28.00
2022-08-07T11:08:03.774Z,27.50
2022-08-07T11:12:40.505Z,27.00
2022-08-07T11:17:45.118Z,27.20
2022-08-07T11:22:32.502Z,28.60
2022-08-07T11:28:00.881Z,28.70
2022-08-07T11:32:44.198Z,29.90
2022-08-07T11:37:38.724Z,32.80
2022-08-07T11:42:29.790Z,36.90
2022-08-07T11:47:56.662Z,39.20
2022-08-07T11:53:10.090Z,40.40
2022-08-07T11:58:03.175Z,40.00
2022-08-07T12:03:06.343Z,40.70
2022-08-07T12:08:26.099Z,42.00
2022-08-07T12:13:36.651Z,42.40
2022-08-07T12:18:45.170Z,42.70
2022-08-07T12:24:38.196Z,43.00
2022-08-07T12:29:38.863Z,43.70
2022-08-07T12:34:04.923Z,43.50
2022-08-07T12:38:42.974Z,43.70
2022-08-07T12:43:09.845Z,43.70
2022-08-07T12:47:57.497Z,43.40
2022-08-07T12:52:35.619Z,44.10
2022-08-07T12:57:09.374Z,42.70
2022-08-07T13:02:25.026Z,43.10
2022-08-07T13:08:12.379Z,43.80
2022-08-07T13:13:02.040Z,43.40
2022-08-07T13:17:59.323Z,43.40
2022-08-07T13:22:53.576Z,43.40
2022-08-07T13:27:33.239Z,43.70
2022-08-07T13:32:59.941Z,43.80
2022-08-07T13:37:55.434Z,43.00
2022-08-07T13:42:25.996Z,43.20
2022-08-07T13:46:54.697Z,43.30
2022-08-07T13:51:27.721Z,43.40
2022-08-07T13:56:01.679Z,43.80
2022-08-07T14:00:50.460Z,44.10
2022-08-07T14:05:23.602Z,44.20
2022-08-07T14:10:15.632Z,44.10
2022-08-07T14:14:43.757Z,44.70
2022-08-07T14:20:40.152Z,43.70
2022-08-07T14:24:09.268Z,43.50
2022-08-07T14:28:57.471Z,43.80
2022-08-07T14:33:23.306Z,44.20
2022-08-07T14:38:05.723Z,43.40
2022-08-07T14:42:32.450Z,43.90
2022-08-07T14:47:14.203Z,43.70
2022-08-07T14:52:04.865Z,44.00
2022-08-07T14:56:32.237Z,43.60
2022-08-07T15:00:56.086Z,44.60
2022-08-07T15:05:23.660Z,43.60
2022-08-07T15:14:33.076Z,44.70
2022-08-07T15:28:38.010Z,44.40
2022-08-07T15:33:19.415Z,43.90
2022-08-07T15:38:17.796Z,44.60
2022-08-07T15:42:48.242Z,43.70
2022-08-07T15:47:18.164Z,44.30
2022-08-07T15:56:34.862Z,43.40
2022-08-07T16:01:00.031Z,43.60
2022-08-07T16:05:31.365Z,43.90
2022-08-07T16:10:14.297Z,44.00
2022-08-07T16:15:05.574Z,44.00
2022-08-07T16:19:58.803Z,43.70
2022-08-07T16:24:35.626Z,44.10
2022-08-07T16:30:11.001Z,44.10
2022-08-07T16:34:52.618Z,44.30
2022-08-07T16:40:03.435Z,44.40
2022-08-07T16:45:14.125Z,44.30
2022-08-07T16:50:28.095Z,44.90
2022-08-07T16:55:14.846Z,45.20
2022-08-07T17:00:00.577Z,45.00
2022-08-07T17:04:58.083Z,44.80
2022-08-07T17:10:08.389Z,44.80
2022-08-07T17:14:53.795Z,44.50
2022-08-07T17:20:03.154Z,45.00
2022-08-07T17:25:03.416Z,44.90
2022-08-07T17:30:15.316Z,45.00
2022-08-07T17:35:51.368Z,45.20
2022-08-07T17:40:15.073Z,45.90
2022-08-07T17:44:55.057Z,45.80
2022-08-07T17:49:30.135Z,46.00
2022-08-07T17:54:29.773Z,46.40
2022-08-07T17:59:35.893Z,47.00
2022-08-07T18:04:38.428Z,47.40
2022-08-07T18:09:06.113Z,47.50
2022-08-07T18:13:53.362Z,47.90
2022-08-07T18:21:03.233Z,48.40
2022-08-07T18:23:43.262Z,48.90
2022-08-07T18:28:57.816Z,49.30
2022-08-07T18:34:40.951Z,49.80
2022-08-07T18:40:06.558Z,50.30
2022-08-07T18:45:42.764Z,50.80
2022-08-07T18:50:39.073Z,51.30
2022-08-07T18:55:40.999Z,52.10
2022-08-07T19:00:34.430Z,52.80
2022-08-07T19:06:02.652Z,53.80
2022-08-07T19:10:31.431Z,54.50
2022-08-07T19:16:02.444Z,54.80
2022-08-07T19:20:29.920Z,55.20
2022-08-07T19:24:54.366Z,55.70
2022-08-07T19:30:55.808Z,56.30
2022-08-07T19:34:05.871Z,56.60
2022-08-07T19:38:35.780Z,57.70
2022-08-07T19:43:45.192Z,58.80
2022-08-07T19:48:19.106Z,59.90
2022-08-07T19:52:58.469Z,61.30
2022-08-07T19:58:03.045Z,61.60
2022-08-07T20:02:52.048Z,63.40
2022-08-07T20:07:23.790Z,64.70
2022-08-07T20:12:22.228Z,65.70
2022-08-07T20:16:45.196Z,67.00
2022-08-07T20:21:20.836Z,68.40
2022-08-07T20:25:50.787Z,70.10
2022-08-07T20:30:21.799Z,71.70
2022-08-07T20:34:51.087Z,73.30
2022-08-07T20:39:31.109Z,75.20
2022-08-07T20:44:12.776Z,77.20
2022-08-07T20:48:37.807Z,80.00
2022-08-07T20:53:00.692Z,83.50
2022-08-07T20:57:28.729Z,85.70
2022-08-07T21:01:58.389Z,87.80
2022-08-07T21:06:31.356Z,90.60
2022-08-07T21:11:01.224Z,91.70
2022-08-07T21:15:58.276Z,92.60
2022-08-07T21:20:19.064Z,92.90
2022-08-07T21:25:39.090Z,93.30
2022-08-07T21:30:09.170Z,94.70
2022-08-07T21:34:59.859Z,94.80
2022-08-07T21:40:16.151Z,97.40
2022-08-07T21:45:00.207Z,99.20
2022-08-07T21:50:16.776Z,99.90
2022-08-07T21:55:15.368Z,99.90
2022-08-07T22:00:22.040Z,99.90
2022-08-07T22:04:51.081Z,99.90
2022-08-07T22:09:25.955Z,99.90
2022-08-07T22:13:55.321Z,99.90
2022-08-07T22:18:44.267Z,99.90
2022-08-07T22:23:42.241Z,99.90
2022-08-07T22:28:31.585Z,99.90
2022-08-07T22:33:17.507Z,99.90
2022-08-07T22:38:20.457Z,99.90
2022-08-07T22:42:52.497Z,99.90
2022-08-07T22:47:40.085Z,99.90
2022-08-07T22:52:49.344Z,99.90
2022-08-07T22:57:51.025Z,99.90
2022-08-07T23:03:16.206Z,99.90
2022-08-07T23:08:07.276Z,99.90
2022-08-07T23:12:56.355Z,99.90
2022-08-07T23:18:02.616Z,99.90
2022-08-07T23:23:12.717Z,99.90
2022-08-07T23:28:33.216Z,99.90
2022-08-07T23:34:22.321Z,99.90
2022-08-07T23:38:19.447Z,99.90
2022-08-07T23:43:51.273Z,99.90
2022-08-07T23:48:41.237Z,99.90
2022-08-07T23:53:22.853Z,99.90
2022-08-07T23:58:30.757Z,99.90
